Nearby METAR Reports

 

ENCN - Kristiansand/Kje, Norway
Distance from station: Pn 17km
Aktualizacja: 24/01/2020 21:20
Bezchmurnie
Bezchmurnie
 Wiatr z PdZd
Wiatr: PdZd 17 km/h
Temperatura: 4°C
Wind Chill: 0°C
Punkt Rosy: 0°C
Wilgotność: 75%
Ciśnienie: 1011 hPa
Podsumowanie: Bezchmurnie
Visibility: greater than 10 km
2020/01/24 20:20 ENCN 242020Z 22009KT CAVOK 04/M00 Q1011
EKSN - Sindal Airport, Denmark
Distance from station: WsPdWs 145km
Aktualizacja: 24/01/2020 13:50
NOT Current
Przeważnie pochmurno
Przeważnie pochmurno
 Wiatr z Zd
Wiatr: Zd 35 km/h
Temperatura: 7°C
Wind Chill: 3°C
Punkt Rosy: 5°C
Wilgotność: 87%
Ciśnienie: 1012 hPa
Clouds: Przeważnie pochmurno
Visibility: 10 km
Cloud details: Few Clouds 975 m
Przeważnie pochmurno 6706 m
2020/01/24 12:50 EKSN 241250Z 26019KT 9999 FEW032 BKN220 07/05 Q1012
 
EKYT - Alborg, Denmark
Distance from station: PdWs 153km
Aktualizacja: 24/01/2020 21:20
Częściowe zachmurzenie
Częściowe zachmurzenie
 Wiatr z Zd
Wiatr: Zd 19 km/h
Temperatura: 5°C
Wind Chill: 1°C
Punkt Rosy: 4°C
Wilgotność: 93%
Ciśnienie: 1013 hPa
Clouds: Częściowe zachmurzenie
Visibility: 10 km
Cloud details: Few Clouds 762 m
Częściowe zachmurzenie 1067 m
2020/01/24 20:20 EKYT 242020Z 26010KT 9999 FEW025 SCT035 05/04 Q1013
ENSN - Skien/Geiterygge, Norway
Distance from station: PnWs 153km
Aktualizacja: 09/11/2015 09:50
NOT Current
Bezchmurnie
Bezchmurnie
 Wiatr z PdPdZd
Wiatr: PdPdZd 19 km/h, Poryw: 41 km/h
Temperatura: 7°C
Wind Chill: 4°C
Punkt Rosy: 3°C
Wilgotność: 76%
Ciśnienie: 1000 hPa
Podsumowanie: Bezchmurnie
Visibility: greater than 10 km
2015/11/09 08:50 ENSN 090850Z 20010G22KT 150V240 CAVOK 07/03 Q1000
 
ENZV - Stavanger/Sola(A, Norway
Distance from station: PnZd 166km
Aktualizacja: 24/01/2020 21:20
Bezchmurnie
Bezchmurnie
 Wiatr z Zd
Wiatr: Zd 20 km/h
Temperatura: 6°C
Wind Chill: 2°C
Punkt Rosy: 3°C
Wilgotność: 81%
Ciśnienie: 1012 hPa
Podsumowanie: Bezchmurnie
Visibility: greater than 10 km
2020/01/24 20:20 ENZV 242020Z 28011KT CAVOK 06/03 Q1012 NOSIG
ENNO - Notodden, Norway
Distance from station: PnPnZd 182km
Aktualizacja: 24/01/2020 15:50
NOT Current
Few Clouds
Few Clouds
 Wiatr z Zd
Wiatr: Zd 9 km/h
Temperatura: 7°C
Wind Chill: 6°C
Punkt Rosy: -4°C
Wilgotność: 46%
Ciśnienie: 1006 hPa
Clouds: Few Clouds
Visibility: 10 km
Cloud details: Few Clouds 1524 m
2020/01/24 14:50 ENNO 241450Z 28005KT 230V310 9999 FEW050 07/M04 Q1006
 
ENTO - Torp (civ/Nor-Af, Norway
Distance from station: PnWs 183km
Aktualizacja: 24/01/2020 21:20
Bezchmurnie
Bezchmurnie
 Wiatr z PdZd
Wiatr: PdZd 19 km/h
Temperatura: 4°C
Wind Chill: 0°C
Punkt Rosy: -2°C
Wilgotność: 65%
Ciśnienie: 1007 hPa
Podsumowanie: Bezchmurnie
Visibility: greater than 10 km
2020/01/24 20:20 ENTO 242020Z 23010KT CAVOK 04/M02 Q1007 NOSIG
EKKA - Karup (dan-Afb), Denmark
Distance from station: PdPdWs 209km
Aktualizacja: 24/01/2020 21:20
Few Clouds
Few Clouds
 Wiatr z ZdPdZa
Wiatr: ZdPdZa 15 km/h
Temperatura: 6°C
Wind Chill: 3°C
Punkt Rosy: 5°C
Wilgotność: 93%
Ciśnienie: 1015 hPa
Clouds: Few Clouds
Visibility: 10 km
Cloud details: Few Clouds 122 m
2020/01/24 20:20 EKKA 242020Z AUTO 24008KT 9999 FEW004/// 06/05 Q1015
 
ENHD - Haugesund/Karmoy, Norway
Distance from station: PnZd 216km
Aktualizacja: 24/01/2020 21:20
Częściowe zachmurzenie
Częściowe zachmurzenie
 Wiatr z Zd
Wiatr: Zd 22 km/h
Temperatura: 5°C
Wind Chill: 1°C
Punkt Rosy: 2°C
Wilgotność: 81%
Ciśnienie: 1012 hPa
Clouds: Częściowe zachmurzenie
Visibility: 10 km
Cloud details: Few Clouds 518 m
Częściowe zachmurzenie 823 m
2020/01/24 20:20 ENHD 242020Z 28012KT 9999 FEW017 SCT027 05/02 Q1012 REDZ
ENRY - Rygge (nor-Afb), Norway
Distance from station: PnWs 216km
Aktualizacja: 24/01/2020 21:20
Bezchmurnie
Bezchmurnie
 Wiatr z PdZd
Wiatr: PdZd 11 km/h
Temperatura: 4°C
Wind Chill: 1°C
Punkt Rosy: -3°C
Wilgotność: 61%
Ciśnienie: 1007 hPa
Clouds: Bezchmurnie
Visibility: 10 km
2020/01/24 20:20 ENRY 242020Z AUTO 23006KT 9999NDV NCD 04/M03 Q1007
 
ESGP - Goteborg/Save (a, Sweden
Distance from station: Ws 230km
Aktualizacja: 02/01/2017 11:20
NOT Current
Bezchmurnie
Bezchmurnie
 Wiatr z calm
Wiatr: Cisza
Temperatura: -2°C
Punkt Rosy: -4°C
Wilgotność: 86%
Ciśnienie: 1012 hPa
Clouds: Bezchmurnie
Visibility: 10 km
2017/01/02 10:20 ESGP 021020Z AUTO 00000KT 9999 NCD M02/M04 Q1012
EKVJ - Stauning Airport, Denmark
Distance from station: Pd 233km
Aktualizacja: 24/01/2020 15:50
NOT Current
Mist, Przeważnie pochmurno
Mist, Przeważnie pochmurno
 Wiatr z ZdPdZa
Wiatr: ZdPdZa 22 km/h
Temperatura: 7°C
Wind Chill: 4°C
Punkt Rosy: 7°C
Wilgotność: 100%
Ciśnienie: 1016 hPa
Podsumowanie: Mist
Clouds: Przeważnie pochmurno
Visibility: 4 km
Cloud details: Przeważnie pochmurno 152 m
2020/01/24 14:50 EKVJ 241450Z 25012KT 4000 BR BKN005 07/07 Q1016
 
ENSO - Stord/Soerstokke, Norway
Distance from station: PnZd 246km
Aktualizacja: 24/01/2020 20:20
Nearby showers, Few clouds
Nearby showers, Few clouds
 Wiatr z Zd
Wiatr: Zd 6 km/h
Temperatura: 3°C
Punkt Rosy: 3°C
Wilgotność: 100%
Ciśnienie: 1012 hPa
Podsumowanie: Nearby Showers
Clouds: Few Clouds
Visibility: 10 km
Cloud details: Few Clouds 823 m
2020/01/24 19:20 ENSO 241920Z 28003KT 9999 VCSH FEW027CB 03/03 Q1012
EKAH - Tirstrup (civ/Mi, Denmark
Distance from station: PdWs 252km
Aktualizacja: 24/01/2020 21:20
Bezchmurnie
Bezchmurnie
 Wiatr z Zd
Wiatr: Zd 11 km/h
Temperatura: 6°C
Wind Chill: 4°C
Punkt Rosy: 5°C
Wilgotność: 93%
Ciśnienie: 1015 hPa
Clouds: Bezchmurnie
Visibility: 10 km
2020/01/24 20:20 EKAH 242020Z AUTO 27006KT 9999NDV NCD 06/05 Q1015
 
ESGT - Trollhattan (pvt, Sweden
Distance from station: Ws 255km
Aktualizacja: 24/01/2020 21:20
Bezchmurnie
Bezchmurnie
 Wiatr z ZdPdZa
Wiatr: ZdPdZa 15 km/h
Temperatura: 5°C
Wind Chill: 2°C
Punkt Rosy: 2°C
Wilgotność: 81%
Ciśnienie: 1009 hPa
Clouds: Bezchmurnie
Visibility: 10 km
2020/01/24 20:20 ESGT 242020Z AUTO 25008KT 9999 NCD 05/02 Q1009
ESGG - Goteborg/Landvet, Sweden
Distance from station: Ws 257km
Aktualizacja: 24/01/2020 21:20
Przeważnie pochmurno
Przeważnie pochmurno
 Wiatr z ZdPdZa
Wiatr: ZdPdZa 24 km/h
Temperatura: 4°C
Wind Chill: -1°C
Punkt Rosy: 3°C
Wilgotność: 93%
Ciśnienie: 1010 hPa
Clouds: Przeważnie pochmurno
Visibility: 10 km
Cloud details: Przeważnie pochmurno 244 m
2020/01/24 20:20 ESGG 242020Z 25013KT 220V290 9999 BKN008 04/03 Q1010 R21/29//95
 
EKBI - Billund Airport, Denmark
Distance from station: PdPdWs 269km
Aktualizacja: 24/01/2020 21:20
Light drizzle, Mist, Pochmurno
Light drizzle, Mist, Pochmurno
 Wiatr z ZdPdZa
Wiatr: ZdPdZa 17 km/h
Temperatura: 6°C
Wind Chill: 3°C
Punkt Rosy: 6°C
Wilgotność: 100%
Ciśnienie: 1016 hPa
Podsumowanie: Light drizzle, Mist
Clouds: Pochmurno
Visibility: 2 km
Cloud details: Pochmurno 91 m
2020/01/24 20:20 EKBI 242020Z 24009KT 2000 -DZ BR OVC003 06/06 Q1016
EKHN - Horns Rev B Heli, Denmark
Distance from station: Pd 274km
Aktualizacja: 09/08/2016 14:20
NOT Current
Few Clouds
Few Clouds
 Wiatr z ZdPnZd
Wiatr: ZdPnZd 50 km/h, Poryw: 72 km/h
Temperatura: 14°C
Punkt Rosy: 10°C
Wilgotność: 77%
Ciśnienie: 1018 hPa
Clouds: Few Clouds
Visibility: 10 km
Cloud details: Few Clouds 1158 m
Few Clouds 2438 m
2016/08/09 12:20 EKHN 091220Z AUTO 29027G39KT 270V340 9999NDV FEW038/// FEW080/// 14/10 Q1018
 
ESIB - Satenas (swe-Afb, Sweden
Distance from station: Ws 277km
Aktualizacja: 24/01/2020 21:20
Bezchmurnie
Bezchmurnie
 Wiatr z ZdPdZa
Wiatr: ZdPdZa 24 km/h
Temperatura: 4°C
Wind Chill: -1°C
Punkt Rosy: 3°C
Wilgotność: 93%
Ciśnienie: 1008 hPa
Clouds: Bezchmurnie
Visibility: 10 km
2020/01/24 20:20 ESIB 242020Z AUTO 25013KT 9999 NCD 04/03 Q1008
EKHR - Horns Rev B Heli, Denmark
Distance from station: Pd 282km
Aktualizacja: 04/10/2016 06:20
NOT Current
Bezchmurnie
Bezchmurnie
 Wiatr z Ws
Wiatr: Ws 4 km/h
Temperatura: 11°C
Punkt Rosy: -49°C
Wilgotność: 0%
Ciśnienie: 1038 hPa
Clouds: Bezchmurnie
Visibility: 10 km
2016/10/04 04:20 EKHR 040420Z AUTO 08002KT 9999NDV NCD 11/M49 Q1038